createdAt,value
2018-06-29T07:45:11.296Z,53.90
2018-06-29T07:45:45.988Z,53.90
2018-06-29T07:46:23.277Z,53.40
2018-06-29T07:46:56.312Z,53.00
2018-06-29T07:47:30.121Z,53.40
2018-06-29T07:48:03.187Z,53.20
2018-06-29T07:48:37.018Z,52.00
2018-06-29T07:49:09.629Z,52.10
2018-06-29T07:49:42.162Z,53.30
2018-06-29T07:50:19.359Z,52.80
2018-06-29T07:50:51.909Z,53.10
2018-06-29T07:51:24.675Z,52.10
2018-06-29T07:52:36.351Z,52.30
2018-06-29T07:53:08.903Z,52.30
2018-06-29T07:53:41.439Z,49.90
2018-06-29T07:54:14.657Z,50.10
2018-06-29T07:54:47.308Z,51.60
2018-06-29T07:55:20.977Z,50.50
2018-06-29T07:55:54.032Z,50.10
2018-06-29T07:57:09.346Z,52.00
2018-06-29T07:57:42.394Z,52.10
2018-06-29T07:58:15.461Z,52.00
2018-06-29T07:59:26.525Z,49.80
2018-06-29T07:59:59.576Z,51.00
2018-06-29T08:00:33.413Z,51.30
2018-06-29T08:01:06.455Z,51.30
2018-06-29T08:01:39.539Z,50.70
2018-06-29T08:02:13.157Z,50.80
2018-06-29T08:02:49.680Z,51.20
2018-06-29T08:03:30.682Z,48.40
2018-06-29T08:04:03.736Z,47.90
2018-06-29T08:04:36.817Z,50.50
2018-06-29T08:05:09.864Z,50.60
2018-06-29T08:05:43.687Z,50.00
2018-06-29T08:06:16.727Z,49.90
2018-06-29T08:06:50.830Z,50.50
2018-06-29T08:07:23.892Z,50.50
2018-06-29T08:07:57.702Z,50.90
2018-06-29T08:08:30.767Z,51.20
2018-06-29T08:09:03.824Z,50.60
2018-06-29T08:09:36.904Z,50.00
2018-06-29T08:10:09.931Z,49.70
2018-06-29T08:10:42.995Z,50.70
2018-06-29T08:11:16.780Z,50.10
2018-06-29T08:11:49.816Z,50.20
2018-06-29T08:12:22.857Z,49.00
2018-06-29T08:12:55.896Z,49.80
2018-06-29T08:13:29.688Z,50.00
2018-06-29T08:14:02.735Z,50.00
2018-06-29T08:14:36.599Z,50.00
2018-06-29T08:15:10.377Z,50.00
2018-06-29T08:15:43.403Z,49.20
2018-06-29T08:16:17.211Z,49.60
2018-06-29T08:16:51.033Z,48.70
2018-06-29T08:17:24.081Z,48.70
2018-06-29T08:17:57.840Z,48.30
2018-06-29T08:18:30.879Z,49.20
2018-06-29T08:19:03.950Z,50.20
2018-06-29T08:19:38.737Z,50.00
2018-06-29T08:20:11.836Z,50.10
2018-06-29T08:20:44.464Z,48.50
2018-06-29T08:21:17.445Z,49.70
2018-06-29T08:21:51.253Z,48.10
2018-06-29T08:22:24.280Z,48.00
2018-06-29T08:22:56.889Z,47.30
2018-06-29T08:23:29.836Z,49.50
2018-06-29T08:24:02.876Z,48.50
2018-06-29T08:24:35.929Z,49.30
2018-06-29T08:25:08.983Z,50.40
2018-06-29T08:25:41.580Z,47.80
2018-06-29T08:26:20.517Z,48.60
2018-06-29T08:26:53.560Z,47.30
2018-06-29T08:27:26.604Z,48.70
2018-06-29T08:27:59.707Z,47.60
2018-06-29T08:28:32.730Z,47.60
2018-06-29T08:29:05.861Z,48.70
2018-06-29T08:29:38.895Z,48.30
2018-06-29T08:30:12.697Z,48.30
2018-06-29T08:30:45.724Z,48.20
2018-06-29T08:31:18.788Z,49.50
2018-06-29T08:31:51.811Z,48.90
2018-06-29T08:32:24.856Z,48.70
2018-06-29T08:32:57.924Z,47.90
2018-06-29T08:33:30.976Z,48.80
2018-06-29T08:34:04.021Z,48.70
2018-06-29T08:34:37.056Z,46.90
2018-06-29T08:35:10.133Z,47.70
2018-06-29T08:35:43.190Z,47.40
2018-06-29T08:36:16.231Z,46.50
2018-06-29T08:36:49.284Z,48.30
2018-06-29T08:37:23.117Z,49.40
2018-06-29T08:37:56.150Z,49.40
2018-06-29T08:38:29.979Z,47.00
2018-06-29T08:39:02.821Z,46.90
2018-06-29T08:39:35.806Z,47.30
2018-06-29T08:40:08.918Z,48.10
2018-06-29T08:40:41.952Z,48.50
2018-06-29T08:41:14.984Z,49.50
2018-06-29T08:41:48.041Z,49.40
2018-06-29T08:42:21.088Z,47.10
2018-06-29T08:42:54.123Z,48.50
2018-06-29T08:43:27.195Z,49.30
2018-06-29T08:44:00.229Z,49.70
2018-06-29T08:44:33.272Z,49.90
2018-06-29T08:45:06.343Z,48.90
2018-06-29T08:45:39.387Z,48.70
2018-06-29T08:46:12.428Z,48.30
2018-06-29T08:46:45.485Z,48.70
2018-06-29T08:47:19.267Z,47.80
2018-06-29T08:47:52.288Z,47.80
2018-06-29T08:48:25.336Z,48.20
2018-06-29T08:48:58.376Z,49.20
2018-06-29T08:49:32.209Z,49.70
2018-06-29T08:50:05.248Z,49.70
2018-06-29T08:50:38.285Z,49.40
2018-06-29T08:51:11.319Z,49.90
2018-06-29T08:51:44.358Z,50.10
2018-06-29T08:52:17.432Z,47.50
2018-06-29T08:52:50.467Z,49.20
2018-06-29T08:53:23.537Z,48.70
2018-06-29T08:53:56.584Z,48.60
2018-06-29T08:54:30.422Z,48.00
2018-06-29T08:55:03.506Z,48.20
2018-06-29T08:55:36.740Z,49.50
2018-06-29T08:56:09.783Z,49.70
2018-06-29T08:56:43.805Z,49.80
2018-06-29T08:57:16.867Z,49.70
2018-06-29T08:57:50.670Z,49.70
2018-06-29T08:58:23.907Z,49.70
2018-06-29T08:58:57.001Z,47.20
2018-06-29T08:59:29.996Z,48.80
2018-06-29T09:00:03.031Z,48.30
2018-06-29T09:00:36.092Z,47.90
2018-06-29T09:01:09.168Z,48.60
2018-06-29T09:01:42.202Z,49.50
2018-06-29T09:02:15.280Z,49.60
2018-06-29T09:02:48.351Z,48.70
2018-06-29T09:03:21.402Z,49.70
2018-06-29T09:03:55.192Z,48.90
2018-06-29T09:04:28.995Z,49.20
2018-06-29T09:05:02.079Z,49.20
2018-06-29T09:05:35.094Z,47.30
2018-06-29T09:06:09.170Z,47.40
2018-06-29T09:06:42.424Z,47.40
2018-06-29T09:07:16.997Z,48.10
2018-06-29T09:07:50.028Z,48.00
2018-06-29T09:08:23.064Z,48.80
2018-06-29T09:08:56.117Z,50.10
2018-06-29T09:09:29.885Z,49.90
2018-06-29T09:10:02.952Z,48.90
2018-06-29T09:10:36.019Z,49.30
2018-06-29T09:11:09.076Z,50.50
2018-06-29T09:11:42.135Z,51.10
2018-06-29T09:12:15.169Z,49.80
2018-06-29T09:12:48.212Z,48.40
2018-06-29T09:13:22.016Z,50.00
2018-06-29T09:13:55.048Z,50.00
2018-06-29T09:14:28.095Z,50.60
2018-06-29T09:15:01.142Z,50.20
2018-06-29T09:16:14.243Z,49.30
2018-06-29T09:16:50.547Z,48.30
2018-06-29T09:17:23.595Z,49.20
2018-06-29T09:17:56.780Z,49.80
2018-06-29T09:18:29.811Z,50.60
2018-06-29T09:19:02.869Z,50.70
2018-06-29T09:19:35.904Z,49.90
2018-06-29T09:20:08.942Z,48.60
2018-06-29T09:20:42.005Z,48.60
2018-06-29T09:21:15.816Z,50.10
2018-06-29T09:21:48.864Z,50.00
2018-06-29T09:22:21.993Z,49.70
2018-06-29T09:22:55.046Z,49.50
2018-06-29T09:23:28.084Z,48.90
2018-06-29T09:24:01.140Z,49.20
2018-06-29T09:24:34.185Z,49.00
2018-06-29T09:25:07.226Z,49.20
2018-06-29T09:25:41.603Z,49.60
2018-06-29T09:26:14.651Z,49.50
2018-06-29T09:26:47.686Z,49.30
2018-06-29T09:27:20.745Z,49.60
2018-06-29T09:27:54.545Z,50.30
2018-06-29T09:28:27.626Z,50.20
2018-06-29T09:29:00.648Z,47.50
2018-06-29T09:29:33.725Z,47.40
2018-06-29T09:30:07.524Z,48.90
2018-06-29T09:30:42.092Z,49.30
2018-06-29T09:31:15.131Z,49.20
2018-06-29T09:31:48.167Z,49.20
2018-06-29T09:32:21.212Z,49.60
2018-06-29T09:32:54.259Z,49.80
2018-06-29T09:33:27.304Z,48.10
2018-06-29T09:34:00.978Z,48.70
2018-06-29T09:34:34.012Z,47.80
2018-06-29T09:35:07.065Z,48.60
2018-06-29T09:35:40.140Z,47.30
2018-06-29T09:36:13.210Z,47.90
2018-06-29T09:36:46.237Z,48.40
2018-06-29T09:37:19.302Z,46.30
2018-06-29T09:37:53.124Z,47.90
2018-06-29T09:38:26.161Z,47.70
2018-06-29T09:38:59.256Z,47.30
2018-06-29T09:39:32.301Z,47.70
2018-06-29T09:40:06.887Z,48.70
2018-06-29T09:40:39.945Z,48.20
2018-06-29T09:41:12.972Z,46.70
2018-06-29T09:41:46.012Z,45.80
2018-06-29T09:42:19.065Z,46.90
2018-06-29T09:42:52.110Z,46.30
2018-06-29T09:43:25.150Z,48.30
2018-06-29T09:43:58.956Z,48.40
2018-06-29T09:44:32.767Z,47.00
2018-06-29T09:45:05.850Z,46.90
2018-06-29T09:45:38.932Z,45.80
2018-06-29T09:46:12.020Z,46.90
2018-06-29T09:46:45.331Z,45.50
2018-06-29T09:47:18.474Z,46.20
2018-06-29T09:47:51.523Z,45.40
2018-06-29T09:48:25.323Z,47.10
2018-06-29T09:48:58.606Z,47.10
2018-06-29T09:49:31.654Z,46.30
2018-06-29T09:50:04.713Z,46.20
2018-06-29T09:50:37.787Z,46.70
2018-06-29T09:51:10.844Z,47.60
2018-06-29T09:51:43.903Z,48.10
2018-06-29T09:52:16.949Z,48.30
2018-06-29T09:52:49.995Z,48.20
2018-06-29T09:53:23.812Z,48.50
2018-06-29T09:53:56.896Z,47.90
2018-06-29T09:54:29.935Z,48.30
2018-06-29T09:55:02.998Z,47.90
2018-06-29T09:55:36.064Z,48.60
2018-06-29T09:56:09.132Z,46.80
2018-06-29T09:56:42.172Z,47.30
2018-06-29T09:57:15.221Z,47.60
2018-06-29T09:57:49.016Z,47.30
2018-06-29T09:58:22.069Z,46.60
2018-06-29T09:58:55.120Z,47.10
2018-06-29T09:59:28.157Z,46.60
2018-06-29T10:00:01.225Z,48.60
2018-06-29T10:00:35.064Z,47.70
2018-06-29T10:01:08.172Z,47.60
2018-06-29T10:01:41.433Z,48.00
2018-06-29T10:02:14.705Z,47.60
2018-06-29T10:02:47.753Z,46.90
2018-06-29T10:03:20.807Z,45.30
2018-06-29T10:03:54.836Z,45.90
2018-06-29T10:04:27.870Z,46.10
2018-06-29T10:05:01.687Z,47.80
2018-06-29T10:05:34.729Z,47.80
2018-06-29T10:06:08.579Z,47.90
2018-06-29T10:06:41.633Z,47.90
2018-06-29T10:07:14.680Z,47.60
2018-06-29T10:07:48.480Z,48.30
2018-06-29T10:08:21.527Z,48.30
2018-06-29T10:08:54.588Z,48.80
2018-06-29T10:09:27.645Z,48.80
2018-06-29T10:10:00.668Z,48.80
2018-06-29T10:10:34.487Z,47.30
2018-06-29T10:11:07.532Z,47.10
2018-06-29T10:11:41.358Z,48.50
2018-06-29T10:12:14.417Z,49.10
2018-06-29T10:12:48.295Z,48.60
2018-06-29T10:13:22.343Z,48.00
2018-06-29T10:13:55.409Z,48.00
2018-06-29T10:14:28.514Z,48.80
2018-06-29T10:15:02.269Z,48.60
2018-06-29T10:15:35.331Z,48.60
2018-06-29T10:16:09.128Z,48.60
2018-06-29T10:16:42.181Z,48.60
2018-06-29T10:17:16.001Z,48.20
2018-06-29T10:17:49.441Z,48.10
2018-06-29T10:18:22.493Z,47.80
2018-06-29T10:18:55.532Z,46.20
2018-06-29T10:19:28.629Z,47.40
2018-06-29T10:20:02.495Z,47.40
2018-06-29T10:20:35.483Z,47.30
2018-06-29T10:21:08.522Z,47.10
2018-06-29T10:21:41.572Z,47.40
2018-06-29T10:22:14.623Z,48.00
2018-06-29T10:22:47.660Z,47.30
2018-06-29T10:23:20.705Z,47.20
2018-06-29T10:23:53.740Z,47.30
2018-06-29T10:24:26.771Z,47.40
2018-06-29T10:24:59.809Z,47.00
2018-06-29T10:25:32.894Z,48.00
2018-06-29T10:26:05.897Z,48.50
2018-06-29T10:26:38.964Z,45.90
2018-06-29T10:27:12.037Z,47.90
2018-06-29T10:27:45.053Z,46.60
2018-06-29T10:28:18.097Z,47.50
2018-06-29T10:28:52.496Z,47.80
2018-06-29T10:29:26.308Z,46.20
2018-06-29T10:29:59.353Z,46.20
2018-06-29T10:30:32.641Z,46.00
2018-06-29T10:31:05.681Z,45.00
2018-06-29T10:31:38.900Z,45.50
2018-06-29T10:32:12.753Z,45.30
2018-06-29T10:32:45.805Z,46.40
2018-06-29T10:33:18.848Z,44.90
2018-06-29T10:33:52.134Z,45.70
2018-06-29T10:34:25.930Z,46.10
2018-06-29T10:34:58.976Z,45.90
2018-06-29T10:35:32.033Z,45.90
2018-06-29T10:36:05.313Z,47.30
2018-06-29T10:36:39.086Z,46.90
2018-06-29T10:37:12.897Z,47.80
2018-06-29T10:37:45.962Z,47.80
2018-06-29T10:38:19.037Z,46.70
2018-06-29T10:38:52.392Z,45.60
2018-06-29T10:39:25.379Z,46.80
2018-06-29T10:39:59.392Z,45.00
2018-06-29T10:40:32.661Z,44.80
2018-06-29T10:41:05.743Z,45.30
2018-06-29T10:41:38.808Z,47.20
2018-06-29T10:42:11.858Z,44.80
2018-06-29T10:42:44.909Z,46.90
2018-06-29T10:43:17.990Z,46.20
2018-06-29T10:43:51.243Z,47.70
2018-06-29T10:44:24.507Z,44.10
2018-06-29T10:44:57.797Z,45.60
2018-06-29T10:45:30.860Z,47.20
2018-06-29T10:46:04.129Z,47.30
2018-06-29T10:47:15.195Z,47.50
2018-06-29T10:47:48.233Z,47.20
2018-06-29T10:48:22.051Z,45.00
2018-06-29T10:48:55.099Z,44.90
2018-06-29T10:49:28.909Z,46.60
2018-06-29T10:50:01.966Z,46.40
2018-06-29T10:50:35.787Z,43.90
2018-06-29T10:51:08.833Z,43.90
2018-06-29T10:51:42.660Z,45.50
2018-06-29T10:52:15.700Z,45.50
2018-06-29T10:52:49.048Z,45.80
2018-06-29T10:53:23.460Z,44.40
2018-06-29T10:53:56.497Z,44.70
2018-06-29T10:54:29.543Z,43.70
2018-06-29T10:55:04.932Z,44.70
2018-06-29T10:55:38.012Z,44.80
2018-06-29T10:56:11.060Z,44.50
2018-06-29T10:56:44.098Z,46.60
2018-06-29T10:57:17.919Z,45.90
2018-06-29T10:57:50.953Z,46.50
2018-06-29T10:58:23.987Z,44.60
2018-06-29T10:58:57.030Z,45.90
2018-06-29T10:59:30.056Z,47.00
2018-06-29T11:00:03.094Z,46.80
2018-06-29T11:00:36.127Z,47.30
2018-06-29T11:01:09.163Z,46.90
2018-06-29T11:01:42.198Z,45.00
2018-06-29T11:02:15.250Z,43.60
2018-06-29T11:02:48.284Z,43.40
2018-06-29T11:03:21.355Z,44.50
2018-06-29T11:03:54.453Z,45.20
2018-06-29T11:04:27.485Z,44.90
2018-06-29T11:05:00.524Z,43.90
2018-06-29T11:05:33.673Z,44.30
2018-06-29T11:06:06.647Z,43.80
2018-06-29T11:06:39.677Z,43.10
2018-06-29T11:07:12.728Z,43.10
2018-06-29T11:07:46.076Z,44.00
2018-06-29T11:08:18.598Z,43.90
2018-06-29T11:08:51.116Z,45.20
2018-06-29T11:09:23.628Z,42.60
2018-06-29T11:09:56.577Z,42.10
2018-06-29T11:10:30.380Z,42.70
2018-06-29T11:11:03.474Z,42.70
2018-06-29T11:11:36.476Z,41.10
2018-06-29T11:12:09.533Z,42.00
2018-06-29T11:12:42.577Z,42.40
2018-06-29T11:13:15.627Z,42.50
2018-06-29T11:13:48.656Z,43.00
2018-06-29T11:14:21.769Z,42.10
2018-06-29T11:14:54.826Z,43.40
2018-06-29T11:15:27.870Z,43.90
2018-06-29T11:16:00.963Z,43.60
2018-06-29T11:16:33.955Z,45.30
2018-06-29T11:17:07.014Z,42.10
2018-06-29T11:17:40.235Z,42.20
2018-06-29T11:18:13.289Z,42.00
2018-06-29T11:18:46.354Z,44.40
2018-06-29T11:19:19.392Z,43.60
2018-06-29T11:19:52.454Z,45.30
2018-06-29T11:20:26.247Z,41.80
2018-06-29T11:21:00.048Z,44.30
2018-06-29T11:21:33.091Z,44.30
2018-06-29T11:22:06.148Z,41.60
2018-06-29T11:22:39.255Z,42.20
2018-06-29T11:23:12.257Z,41.60
2018-06-29T11:23:45.317Z,40.70
2018-06-29T11:24:19.125Z,41.60
2018-06-29T11:24:52.192Z,41.70
2018-06-29T11:25:25.973Z,44.30
2018-06-29T11:25:59.782Z,43.60
2018-06-29T11:26:32.825Z,43.60
2018-06-29T11:27:05.856Z,42.90
2018-06-29T11:27:38.907Z,41.60
2018-06-29T11:28:11.955Z,44.10
2018-06-29T11:28:45.001Z,41.20
2018-06-29T11:29:18.032Z,41.10
2018-06-29T11:29:51.073Z,43.00
2018-06-29T11:30:24.161Z,42.70
2018-06-29T11:30:57.169Z,41.30
2018-06-29T11:31:30.201Z,44.30
2018-06-29T11:32:03.642Z,44.40
2018-06-29T11:32:36.665Z,42.60
2018-06-29T11:33:10.477Z,43.60
2018-06-29T11:33:43.542Z,43.70
2018-06-29T11:34:17.356Z,44.40
2018-06-29T11:34:51.317Z,44.00
2018-06-29T11:35:25.120Z,43.50
2018-06-29T11:35:58.940Z,43.70
2018-06-29T11:36:32.776Z,44.30
2018-06-29T11:37:05.823Z,43.20
2018-06-29T11:37:39.531Z,41.80
2018-06-29T11:38:12.566Z,42.80
2018-06-29T11:38:45.665Z,43.60
2018-06-29T11:39:18.708Z,42.80
2018-06-29T11:39:51.760Z,42.70
2018-06-29T11:40:25.583Z,41.80
2018-06-29T11:40:58.640Z,41.90
2018-06-29T11:41:32.444Z,40.90
2018-06-29T11:42:05.508Z,40.90
2018-06-29T11:42:38.618Z,41.60
2018-06-29T11:43:11.602Z,42.40
2018-06-29T11:43:44.647Z,41.60
2018-06-29T11:44:17.809Z,40.40
2018-06-29T11:44:50.771Z,41.30
2018-06-29T11:45:23.816Z,42.30
2018-06-29T11:45:56.873Z,44.00
2018-06-29T11:46:29.917Z,44.30
2018-06-29T11:47:03.169Z,43.70
2018-06-29T11:47:36.232Z,42.10
2018-06-29T11:48:09.321Z,41.60
2018-06-29T11:48:42.434Z,42.50
2018-06-29T11:49:15.401Z,42.70
2018-06-29T11:49:48.449Z,44.00
2018-06-29T11:50:21.497Z,42.20
2018-06-29T11:50:54.542Z,40.70
2018-06-29T11:51:27.599Z,41.40
2018-06-29T11:52:01.405Z,41.90
2018-06-29T11:52:34.512Z,42.00
2018-06-29T11:53:07.570Z,42.60
2018-06-29T11:53:40.617Z,41.90
2018-06-29T11:54:13.669Z,40.60
2018-06-29T11:54:46.706Z,42.30
2018-06-29T11:55:19.745Z,43.30
2018-06-29T11:55:52.783Z,43.10
2018-06-29T11:56:25.838Z,40.80
2018-06-29T11:56:58.879Z,40.90
2018-06-29T11:57:31.948Z,40.80
2018-06-29T11:58:04.993Z,41.60
2018-06-29T11:58:38.806Z,44.00
2018-06-29T11:59:11.853Z,44.10
2018-06-29T11:59:44.906Z,40.90
2018-06-29T12:00:17.966Z,42.50
2018-06-29T12:00:51.007Z,44.00
2018-06-29T12:01:24.044Z,42.90
2018-06-29T12:01:57.083Z,43.80
2018-06-29T12:02:30.128Z,43.80
2018-06-29T12:03:03.970Z,40.80
2018-06-29T12:03:37.001Z,40.80
2018-06-29T12:04:10.051Z,43.10
2018-06-29T12:04:43.910Z,41.00
2018-06-29T12:05:16.951Z,40.90
2018-06-29T12:05:49.989Z,42.30
2018-06-29T12:06:23.034Z,41.10
2018-06-29T12:06:56.073Z,41.30
2018-06-29T12:07:29.172Z,44.20
2018-06-29T12:08:02.246Z,44.50
2018-06-29T12:08:35.298Z,42.40
2018-06-29T12:09:09.296Z,42.30
2018-06-29T12:09:42.341Z,42.30
2018-06-29T12:10:15.380Z,41.20
2018-06-29T12:10:48.422Z,41.10
2018-06-29T12:11:21.473Z,40.50
2018-06-29T12:11:55.301Z,43.40
2018-06-29T12:12:28.397Z,43.40
2018-06-29T12:13:01.475Z,41.80
2018-06-29T12:13:34.506Z,40.70
2018-06-29T12:14:07.559Z,42.20
2018-06-29T12:14:40.824Z,42.70
2018-06-29T12:15:13.884Z,40.70
2018-06-29T12:15:47.167Z,41.30
2018-06-29T12:16:20.196Z,40.60
2018-06-29T12:16:53.229Z,41.20
2018-06-29T12:17:26.285Z,41.00
2018-06-29T12:17:59.338Z,41.40
2018-06-29T12:18:32.382Z,42.20
2018-06-29T12:19:06.405Z,42.00
2018-06-29T12:19:39.474Z,41.90
2018-06-29T12:20:12.764Z,40.60
2018-06-29T12:20:45.931Z,41.80
2018-06-29T12:21:18.925Z,42.30
2018-06-29T12:21:52.001Z,42.10
2018-06-29T12:22:25.036Z,41.10
2018-06-29T12:22:58.091Z,39.90
2018-06-29T12:23:31.151Z,40.80
2018-06-29T12:24:04.207Z,41.30
2018-06-29T12:24:37.245Z,41.60
2018-06-29T12:25:11.051Z,41.60
2018-06-29T12:25:44.108Z,41.40
2018-06-29T12:26:17.261Z,39.70
2018-06-29T12:26:50.287Z,40.00
2018-06-29T12:27:23.332Z,41.60
2018-06-29T12:27:57.208Z,40.50
2018-06-29T12:28:30.969Z,41.00
2018-06-29T12:29:04.027Z,41.00
2018-06-29T12:29:37.057Z,40.00
2018-06-29T12:30:10.873Z,40.70
2018-06-29T12:30:43.903Z,40.80
2018-06-29T12:31:16.952Z,41.30
2018-06-29T12:31:49.993Z,40.30
2018-06-29T12:32:23.041Z,40.60
2018-06-29T12:32:56.101Z,40.90
2018-06-29T12:33:29.147Z,40.00
2018-06-29T12:34:02.191Z,39.60
2018-06-29T12:34:35.255Z,41.80
2018-06-29T12:35:09.061Z,39.60
2018-06-29T12:35:42.107Z,39.50
2018-06-29T12:36:15.157Z,39.60
2018-06-29T12:36:48.194Z,40.90
2018-06-29T12:37:21.224Z,42.10
2018-06-29T12:37:54.698Z,39.60
2018-06-29T12:38:27.722Z,41.50
2018-06-29T12:39:00.751Z,39.60
2018-06-29T12:39:33.804Z,40.20
2018-06-29T12:40:06.864Z,41.60
2018-06-29T12:40:39.912Z,40.50
2018-06-29T12:41:12.930Z,40.60
2018-06-29T12:41:45.961Z,42.60
2018-06-29T12:42:19.001Z,41.00
2018-06-29T12:42:52.041Z,39.70
2018-06-29T12:43:25.085Z,40.10
2018-06-29T12:43:58.183Z,40.10
2018-06-29T12:44:31.189Z,40.60
2018-06-29T12:45:04.225Z,42.20
2018-06-29T12:45:37.244Z,40.30
2018-06-29T12:46:10.299Z,40.40
2018-06-29T12:46:43.324Z,41.50
2018-06-29T12:47:17.138Z,41.00
2018-06-29T12:47:50.173Z,40.80
2018-06-29T12:48:23.232Z,41.50
2018-06-29T12:48:56.262Z,41.90
2018-06-29T12:49:29.285Z,42.00
2018-06-29T12:50:02.334Z,40.70
2018-06-29T12:50:35.377Z,40.60
2018-06-29T12:51:08.422Z,41.20
2018-06-29T12:51:41.457Z,40.90
2018-06-29T12:52:14.489Z,42.80
2018-06-29T12:52:48.293Z,42.00
2018-06-29T12:53:21.330Z,41.90
2018-06-29T12:53:54.356Z,42.80
2018-06-29T12:54:27.384Z,42.40
2018-06-29T12:55:00.436Z,43.60
2018-06-29T12:55:33.485Z,41.20
2018-06-29T12:56:06.766Z,41.10
2018-06-29T12:56:40.568Z,40.70
2018-06-29T12:57:14.365Z,40.70
2018-06-29T12:57:47.370Z,41.40
2018-06-29T12:58:20.440Z,41.60
2018-06-29T12:58:53.473Z,41.00
2018-06-29T12:59:26.503Z,40.90
2018-06-29T12:59:59.548Z,41.20
2018-06-29T13:00:32.588Z,42.20
2018-06-29T13:01:05.660Z,42.50
2018-06-29T13:01:38.694Z,42.20
2018-06-29T13:02:11.738Z,43.10
2018-06-29T13:02:44.785Z,41.40
2018-06-29T13:03:18.601Z,40.60
2018-06-29T13:03:51.666Z,40.50
2018-06-29T13:04:24.713Z,43.00
2018-06-29T13:04:58.509Z,42.10
2018-06-29T13:05:31.759Z,42.00
2018-06-29T13:06:04.613Z,42.90
2018-06-29T13:06:37.649Z,43.10
2018-06-29T13:07:11.457Z,42.60
2018-06-29T13:07:44.516Z,42.70
2018-06-29T13:08:17.557Z,41.60
2018-06-29T13:08:50.607Z,41.90
2018-06-29T13:09:23.638Z,43.00
2018-06-29T13:09:56.673Z,42.90
2018-06-29T13:10:29.709Z,44.90
2018-06-29T13:11:02.751Z,42.40
2018-06-29T13:11:35.781Z,41.80
2018-06-29T13:12:08.836Z,41.80
2018-06-29T13:12:41.871Z,42.50
2018-06-29T13:13:14.930Z,43.00
2018-06-29T13:13:47.976Z,42.60
2018-06-29T13:14:20.999Z,42.00
2018-06-29T13:14:54.036Z,43.00
2018-06-29T13:15:27.078Z,40.80
2018-06-29T13:16:00.114Z,43.10
2018-06-29T13:16:33.928Z,42.10
2018-06-29T13:17:06.965Z,42.00
2018-06-29T13:17:40.025Z,44.60
2018-06-29T13:18:13.047Z,42.10
2018-06-29T13:18:46.094Z,43.30
2018-06-29T13:19:19.141Z,42.10
2018-06-29T13:19:52.165Z,41.20
2018-06-29T13:20:25.205Z,41.90
2018-06-29T13:20:59.021Z,42.40
2018-06-29T13:21:32.066Z,42.30
2018-06-29T13:22:05.729Z,42.80
2018-06-29T13:22:38.767Z,42.10
2018-06-29T13:23:11.800Z,42.00
2018-06-29T13:23:44.858Z,43.20
2018-06-29T13:24:17.881Z,41.10
2018-06-29T13:24:50.960Z,41.90
2018-06-29T13:25:23.990Z,43.10
2018-06-29T13:25:57.021Z,42.20
2018-06-29T13:26:30.068Z,43.20
2018-06-29T13:27:03.927Z,42.30
2018-06-29T13:27:36.958Z,42.50
2018-06-29T13:28:10.005Z,42.00
2018-06-29T13:28:43.065Z,41.90
2018-06-29T13:29:16.111Z,41.50
2018-06-29T13:29:49.136Z,42.10
2018-06-29T13:30:22.949Z,42.00
2018-06-29T13:30:56.189Z,41.80
2018-06-29T13:31:29.032Z,42.40
2018-06-29T13:32:02.100Z,42.70
2018-06-29T13:32:35.133Z,43.30
2018-06-29T13:33:08.160Z,43.20
2018-06-29T13:33:41.533Z,42.80
2018-06-29T13:34:14.504Z,42.10
2018-06-29T13:34:47.556Z,42.00
2018-06-29T13:35:20.611Z,41.70
2018-06-29T13:35:53.670Z,41.70
2018-06-29T13:36:26.713Z,42.00
2018-06-29T13:36:59.758Z,42.60
2018-06-29T13:37:32.789Z,42.30
2018-06-29T13:38:05.833Z,42.30
2018-06-29T13:38:38.981Z,42.80
2018-06-29T13:39:12.022Z,42.40
2018-06-29T13:39:45.181Z,42.10
2018-06-29T13:40:18.225Z,42.90
2018-06-29T13:40:51.290Z,41.90
2018-06-29T13:41:24.339Z,42.80
2018-06-29T13:41:58.145Z,42.20
2018-06-29T13:42:31.184Z,42.30
2018-06-29T13:43:04.237Z,43.10
2018-06-29T13:43:37.278Z,42.60
2018-06-29T13:44:10.386Z,43.30
2018-06-29T13:44:43.383Z,42.40
2018-06-29T13:45:16.449Z,43.60
2018-06-29T13:45:49.786Z,41.80
2018-06-29T13:46:22.868Z,41.60
2018-06-29T13:46:55.917Z,42.90
2018-06-29T13:47:28.935Z,41.50
2018-06-29T13:48:01.994Z,40.90
2018-06-29T13:48:35.074Z,41.30
2018-06-29T13:49:08.129Z,41.40
2018-06-29T13:49:41.929Z,43.80
2018-06-29T13:50:14.968Z,43.80
2018-06-29T13:50:48.015Z,41.50
2018-06-29T13:51:21.071Z,42.90
2018-06-29T13:51:54.114Z,42.80
2018-06-29T13:52:27.151Z,42.30
2018-06-29T13:53:00.206Z,42.10
2018-06-29T13:53:33.236Z,41.40
2018-06-29T13:54:06.297Z,41.20
2018-06-29T13:54:39.343Z,41.50
2018-06-29T13:55:12.396Z,41.50
2018-06-29T13:55:45.440Z,42.20
2018-06-29T13:56:19.257Z,42.40
2018-06-29T13:56:52.312Z,41.70
2018-06-29T13:57:25.361Z,42.10
2018-06-29T13:57:59.183Z,41.10
2018-06-29T13:58:32.232Z,40.90
2018-06-29T13:59:05.297Z,41.10
2018-06-29T13:59:38.363Z,40.90
2018-06-29T14:00:11.440Z,41.80
2018-06-29T14:00:44.488Z,41.50
2018-06-29T14:01:17.541Z,42.00
2018-06-29T14:01:50.593Z,41.90
2018-06-29T14:02:23.709Z,41.70
2018-06-29T14:02:56.727Z,42.80
2018-06-29T14:03:29.787Z,41.20
2018-06-29T14:04:02.858Z,40.60
2018-06-29T14:04:35.914Z,41.80
2018-06-29T14:05:08.976Z,42.10
2018-06-29T14:05:42.016Z,41.20
2018-06-29T14:06:15.072Z,41.90
2018-06-29T14:06:48.119Z,41.50
2018-06-29T14:07:21.181Z,42.00
2018-06-29T14:07:54.232Z,42.00
2018-06-29T14:08:27.289Z,42.40
2018-06-29T14:09:01.115Z,42.40
2018-06-29T14:09:34.846Z,42.40
2018-06-29T14:10:07.884Z,43.40
2018-06-29T14:10:40.961Z,42.90
2018-06-29T14:11:14.006Z,43.40
2018-06-29T14:11:47.054Z,42.60
2018-06-29T14:12:20.113Z,41.50
2018-06-29T14:12:53.174Z,42.00
2018-06-29T14:13:26.223Z,42.10
2018-06-29T14:13:59.308Z,43.10
2018-06-29T14:14:32.345Z,42.80
2018-06-29T14:15:05.394Z,42.40
2018-06-29T14:15:38.448Z,42.50
2018-06-29T14:16:11.514Z,42.90
2018-06-29T14:16:44.573Z,43.00
2018-06-29T14:17:17.606Z,42.20
2018-06-29T14:17:50.637Z,42.50
2018-06-29T14:18:23.710Z,42.30
2018-06-29T14:18:57.500Z,42.20
2018-06-29T14:19:30.547Z,42.30
2018-06-29T14:20:04.361Z,43.20
2018-06-29T14:20:37.408Z,43.10
2018-06-29T14:21:10.547Z,42.40
2018-06-29T14:21:43.585Z,41.90
2018-06-29T14:22:16.641Z,41.50
2018-06-29T14:22:50.438Z,41.30
2018-06-29T14:23:23.490Z,41.30
2018-06-29T14:23:56.543Z,41.30
2018-06-29T14:24:29.576Z,42.10
2018-06-29T14:25:02.616Z,41.60
2018-06-29T14:25:35.668Z,41.70
2018-06-29T14:26:08.721Z,42.40
2018-06-29T14:26:42.537Z,41.80
2018-06-29T14:27:15.574Z,41.80
2018-06-29T14:27:48.611Z,42.50
2018-06-29T14:28:22.416Z,42.50
2018-06-29T14:28:56.238Z,42.40
2018-06-29T14:29:29.512Z,43.00
2018-06-29T14:30:02.585Z,42.80
2018-06-29T14:30:35.621Z,43.00
2018-06-29T14:31:09.295Z,42.20
2018-06-29T14:31:42.343Z,42.30
2018-06-29T14:32:15.390Z,41.90
2018-06-29T14:32:48.436Z,41.80
2018-06-29T14:33:22.243Z,41.50
2018-06-29T14:33:55.304Z,42.00
2018-06-29T14:34:28.359Z,42.70
2018-06-29T14:35:01.397Z,42.20
2018-06-29T14:35:34.434Z,41.90
2018-06-29T14:36:08.248Z,42.10
2018-06-29T14:36:41.320Z,42.10
2018-06-29T14:37:15.129Z,42.80
2018-06-29T14:37:48.174Z,42.70
2018-06-29T14:38:21.988Z,42.30
2018-06-29T14:38:55.024Z,42.20
2018-06-29T14:39:28.088Z,42.20
2018-06-29T14:40:01.264Z,41.40
2018-06-29T14:40:34.340Z,41.70
2018-06-29T14:41:07.409Z,42.60
2018-06-29T14:41:40.456Z,42.30
2018-06-29T14:42:13.516Z,42.60
2018-06-29T14:42:47.261Z,42.30
2018-06-29T14:43:20.301Z,42.60
2018-06-29T14:43:53.362Z,42.50
2018-06-29T14:44:26.433Z,42.70
2018-06-29T14:44:59.669Z,42.50
2018-06-29T14:45:33.275Z,43.00
2018-06-29T14:46:07.119Z,42.30
2018-06-29T14:46:40.154Z,42.30
2018-06-29T14:47:13.200Z,42.00
2018-06-29T14:47:46.235Z,42.00
2018-06-29T14:48:19.312Z,42.20
2018-06-29T14:48:52.360Z,42.90
2018-06-29T14:49:25.416Z,43.00
2018-06-29T14:49:58.445Z,42.90
2018-06-29T14:50:31.495Z,43.30
2018-06-29T14:51:04.521Z,42.10
2018-06-29T14:51:37.587Z,44.60
2018-06-29T14:52:10.628Z,43.40
2018-06-29T14:52:43.659Z,43.00
2018-06-29T14:53:17.473Z,44.10
2018-06-29T14:53:50.518Z,44.10
2018-06-29T14:54:23.576Z,43.30
2018-06-29T14:54:56.608Z,43.40
2018-06-29T14:55:29.659Z,43.70
2018-06-29T14:56:03.454Z,43.20